createdAt,value
2019-02-27T00:02:02.189Z,102352.87
2019-02-27T00:04:35.546Z,102351.84
2019-02-27T00:07:07.697Z,102345.14
2019-02-27T00:09:39.417Z,102343.66
2019-02-27T00:12:11.089Z,102342.14
2019-02-27T00:14:42.450Z,102343.78
2019-02-27T00:17:15.087Z,102343.16
2019-02-27T00:19:47.098Z,102346.98
2019-02-27T00:22:18.537Z,102348.41
2019-02-27T00:24:50.242Z,102340.91
2019-02-27T00:27:21.610Z,102341.86
2019-02-27T00:29:53.645Z,102346.06
2019-02-27T00:32:25.828Z,102344.75
2019-02-27T00:34:57.448Z,102334.34
2019-02-27T00:37:29.177Z,102332.61
2019-02-27T00:40:05.354Z,102329.41
2019-02-27T00:42:34.735Z,102326.97
2019-02-27T00:45:07.063Z,102321.98
2019-02-27T00:47:40.238Z,102323.57
2019-02-27T00:50:11.545Z,102320.45
2019-02-27T00:52:42.940Z,102314.69
2019-02-27T00:55:14.765Z,102316.06
2019-02-27T00:57:46.382Z,102317.58
2019-02-27T01:00:18.735Z,102318.73
2019-02-27T01:02:52.641Z,102330.36
2019-02-27T01:05:23.960Z,102321.62
2019-02-27T01:07:55.270Z,102314.45
2019-02-27T01:10:27.470Z,102307.72
2019-02-27T01:12:58.911Z,102318.09
2019-02-27T01:15:30.567Z,102307.11
2019-02-27T01:18:02.553Z,102313.32
2019-02-27T01:20:34.591Z,102310.34
2019-02-27T01:23:11.047Z,102309.48
2019-02-27T01:25:42.225Z,102305.91
2019-02-27T01:28:14.197Z,102303.19
2019-02-27T01:30:45.502Z,102303.46
2019-02-27T01:33:17.646Z,102299.86
2019-02-27T01:35:51.314Z,102306.22
2019-02-27T01:38:21.898Z,102302.20
2019-02-27T01:40:53.895Z,102291.48
2019-02-27T01:43:25.727Z,102291.56
2019-02-27T01:45:57.863Z,102295.44
2019-02-27T01:48:29.660Z,102291.95
2019-02-27T01:51:00.972Z,102290.02
2019-02-27T01:53:32.282Z,102285.57
2019-02-27T01:56:03.930Z,102288.02
2019-02-27T01:58:35.248Z,102278.98
2019-02-27T02:01:07.435Z,102276.56
2019-02-27T02:03:38.786Z,102276.08
2019-02-27T02:06:10.214Z,102279.39
2019-02-27T02:08:41.773Z,102271.59
2019-02-27T02:11:13.581Z,102270.53
2019-02-27T02:13:58.253Z,102269.16
2019-02-27T02:17:27.109Z,102270.29
2019-02-27T02:21:21.075Z,102271.75
2019-02-27T02:24:54.838Z,102264.25
2019-02-27T02:28:15.634Z,102261.02
2019-02-27T02:31:41.178Z,102259.17
2019-02-27T02:34:50.203Z,102249.81
2019-02-27T02:37:48.958Z,102245.39
2019-02-27T02:41:10.246Z,102241.59
2019-02-27T02:44:58.504Z,102239.35
2019-02-27T02:48:41.405Z,102233.54
2019-02-27T02:51:58.098Z,102230.87
2019-02-27T02:55:13.451Z,102225.72
2019-02-27T02:58:53.546Z,102219.50
2019-02-27T03:01:52.071Z,102215.16
2019-02-27T03:05:33.787Z,102202.17
2019-02-27T03:08:47.401Z,102200.02
2019-02-27T03:12:12.695Z,102194.62
2019-02-27T03:15:31.896Z,102197.33
2019-02-27T03:19:05.020Z,102191.06
2019-02-27T03:22:10.126Z,102187.42
2019-02-27T03:25:25.624Z,102183.23
2019-02-27T03:28:51.006Z,102186.14
2019-02-27T03:32:23.373Z,102183.63
2019-02-27T03:35:51.968Z,102181.85
2019-02-27T03:39:17.992Z,102174.98
2019-02-27T03:42:55.454Z,102174.64
2019-02-27T03:46:08.446Z,102167.42
2019-02-27T03:49:19.681Z,102166.19
2019-02-27T03:52:37.434Z,102163.05
2019-02-27T03:55:58.278Z,102161.11
2019-02-27T03:59:27.165Z,102161.39
2019-02-27T04:02:23.567Z,102157.47
2019-02-27T04:06:11.695Z,102160.55
2019-02-27T04:08:59.593Z,102160.48
2019-02-27T04:11:31.219Z,102157.03
2019-02-27T04:14:05.570Z,102159.33
2019-02-27T04:16:38.146Z,102147.46
2019-02-27T04:19:10.220Z,102156.17
2019-02-27T04:21:42.011Z,102153.89
2019-02-27T04:24:13.739Z,102147.46
2019-02-27T04:26:45.260Z,102147.62
2019-02-27T04:29:16.585Z,102144.94
2019-02-27T04:31:48.217Z,102142.69
2019-02-27T04:34:19.584Z,102142.13
2019-02-27T04:36:50.969Z,102141.85
2019-02-27T04:39:22.301Z,102145.21
2019-02-27T04:41:53.941Z,102142.74
2019-02-27T04:44:25.428Z,102146.43
2019-02-27T04:46:57.114Z,102134.97
2019-02-27T04:49:28.629Z,102138.37
2019-02-27T04:51:59.934Z,102133.44
2019-02-27T04:54:35.066Z,102130.30
2019-02-27T04:57:06.486Z,102127.91
2019-02-27T04:59:40.043Z,102133.22
2019-02-27T05:02:12.088Z,102125.16
2019-02-27T05:04:44.560Z,102129.78
2019-02-27T05:07:20.103Z,102128.41
2019-02-27T05:09:49.240Z,102127.78
2019-02-27T05:12:20.608Z,102128.95
2019-02-27T05:14:53.256Z,102123.27
2019-02-27T05:17:24.655Z,102128.11
2019-02-27T05:19:56.003Z,102124.51
2019-02-27T05:22:27.500Z,102122.50
2019-02-27T05:24:58.848Z,102111.20
2019-02-27T05:27:30.186Z,102114.27
2019-02-27T05:30:01.510Z,102113.05
2019-02-27T05:32:33.207Z,102108.80
2019-02-27T05:35:04.950Z,102111.48
2019-02-27T05:37:39.258Z,102108.27
2019-02-27T05:40:10.113Z,102108.09
2019-02-27T05:42:41.469Z,102103.92
2019-02-27T05:45:14.032Z,102101.17
2019-02-27T05:47:46.010Z,102105.52
2019-02-27T05:50:17.408Z,102106.66
2019-02-27T05:52:49.619Z,102113.73
2019-02-27T05:55:21.151Z,102109.14
2019-02-27T05:57:52.440Z,102111.70
2019-02-27T06:00:24.060Z,102109.75
2019-02-27T06:02:56.834Z,102113.73
2019-02-27T06:05:28.640Z,102112.81
2019-02-27T06:08:02.048Z,102113.88
2019-02-27T06:10:33.062Z,102108.28
2019-02-27T06:13:04.502Z,102098.03
2019-02-27T06:15:35.859Z,102103.60
2019-02-27T06:18:07.265Z,102097.92
2019-02-27T06:20:38.925Z,102100.35
2019-02-27T06:23:12.270Z,102103.09
2019-02-27T06:25:43.631Z,102098.53
2019-02-27T06:28:18.533Z,102098.81
2019-02-27T06:30:47.911Z,102094.17
2019-02-27T06:33:19.317Z,102092.10
2019-02-27T06:35:51.010Z,102091.47
2019-02-27T06:38:25.026Z,102090.68
2019-02-27T06:40:55.655Z,102078.63
2019-02-27T06:43:27.311Z,102087.51
2019-02-27T06:45:59.308Z,102083.55
2019-02-27T06:48:30.617Z,102080.94
2019-02-27T06:51:01.913Z,102078.55
2019-02-27T06:53:33.236Z,102073.13
2019-02-27T06:56:04.609Z,102071.91
2019-02-27T06:58:35.885Z,102069.45
2019-02-27T07:01:09.815Z,102065.16
2019-02-27T07:03:41.243Z,102067.09
2019-02-27T07:06:12.549Z,102072.45
2019-02-27T07:08:43.904Z,102065.88
2019-02-27T07:11:15.611Z,102071.25
2019-02-27T07:13:47.292Z,102069.69
2019-02-27T07:16:20.540Z,102065.23
2019-02-27T07:18:51.682Z,102069.14
2019-02-27T07:21:23.464Z,102072.16
2019-02-27T07:23:58.495Z,102067.22
2019-02-27T07:26:28.592Z,102074.80
2019-02-27T07:28:59.925Z,102068.25
2019-02-27T07:31:37.242Z,102061.59
2019-02-27T07:34:08.619Z,102058.88
2019-02-27T07:36:40.287Z,102061.19
2019-02-27T07:39:11.630Z,102062.38
2019-02-27T07:41:43.353Z,102060.20
2019-02-27T07:44:14.603Z,102050.50
2019-02-27T07:46:46.846Z,102056.02
2019-02-27T07:49:18.520Z,102056.03
2019-02-27T07:51:49.882Z,102062.39
2019-02-27T07:54:21.588Z,102059.90
2019-02-27T07:56:52.984Z,102057.09
2019-02-27T07:59:24.281Z,102054.48
2019-02-27T08:01:55.588Z,102054.27
2019-02-27T08:04:27.995Z,102050.23
2019-02-27T08:06:59.485Z,102051.41
2019-02-27T08:09:30.847Z,102050.30
2019-02-27T08:12:02.240Z,102050.43
2019-02-27T08:14:36.832Z,102047.63
2019-02-27T08:17:17.366Z,102046.10
2019-02-27T08:19:42.868Z,102048.38
2019-02-27T08:22:16.918Z,102046.41
2019-02-27T08:24:49.384Z,102047.29
2019-02-27T08:27:21.075Z,102046.70
2019-02-27T08:29:53.243Z,102045.31
2019-02-27T08:32:25.276Z,102041.21
2019-02-27T08:34:56.602Z,102047.92
2019-02-27T08:37:28.108Z,102049.44
2019-02-27T08:40:00.296Z,102045.98
2019-02-27T08:42:31.992Z,102051.63
2019-02-27T08:45:04.061Z,102038.81
2019-02-27T08:47:35.743Z,102034.25
2019-02-27T08:50:10.545Z,102039.38
2019-02-27T08:52:44.293Z,102038.97
2019-02-27T08:55:19.946Z,102028.80
2019-02-27T08:57:49.978Z,102028.80
2019-02-27T09:00:23.505Z,102017.77
2019-02-27T09:02:55.847Z,102022.28
2019-02-27T09:05:27.798Z,102012.74
2019-02-27T09:07:59.534Z,102009.02
2019-02-27T09:10:31.255Z,102004.47
2019-02-27T09:13:05.821Z,101992.82
2019-02-27T09:15:35.580Z,101994.50
2019-02-27T09:18:06.918Z,101988.43
2019-02-27T09:20:38.356Z,101992.50
2019-02-27T09:23:09.660Z,101985.09
2019-02-27T09:25:42.314Z,101978.70
2019-02-27T09:28:14.154Z,101983.06
2019-02-27T09:30:45.481Z,101983.55
2019-02-27T09:33:20.199Z,101981.20
2019-02-27T09:35:50.755Z,101979.50
2019-02-27T09:38:24.340Z,101978.63
2019-02-27T09:40:55.734Z,101970.64
2019-02-27T09:43:27.951Z,101965.17
2019-02-27T09:45:59.608Z,101961.19
2019-02-27T09:48:33.471Z,101957.51
2019-02-27T09:51:04.617Z,101957.51
2019-02-27T09:53:36.862Z,101954.41
2019-02-27T09:56:12.560Z,101948.92
2019-02-27T09:58:49.125Z,101950.28
2019-02-27T10:01:23.172Z,101940.05
2019-02-27T10:03:56.265Z,101938.78
2019-02-27T10:06:30.121Z,101941.12
2019-02-27T10:09:01.519Z,101929.32
2019-02-27T10:11:33.434Z,101926.97
2019-02-27T10:14:04.841Z,101923.36
2019-02-27T10:16:36.487Z,101918.84
2019-02-27T10:19:07.802Z,101921.59
2019-02-27T10:21:41.273Z,101922.66
2019-02-27T10:24:12.704Z,101910.88
2019-02-27T10:26:44.079Z,101916.31
2019-02-27T10:29:15.451Z,101914.98
2019-02-27T10:31:47.040Z,101906.47
2019-02-27T10:34:18.318Z,101901.28
2019-02-27T10:36:49.690Z,101899.50
2019-02-27T10:39:21.049Z,101898.68
2019-02-27T10:41:52.651Z,101880.59
2019-02-27T10:44:24.374Z,101880.59
2019-02-27T10:46:59.854Z,101872.52
2019-02-27T10:49:31.195Z,101863.86
2019-02-27T10:52:02.884Z,101862.12
2019-02-27T10:54:37.031Z,101868.18
2019-02-27T10:57:08.886Z,101865.70
2019-02-27T10:59:40.407Z,101865.69
2019-02-27T11:02:12.398Z,101856.48
2019-02-27T11:04:44.782Z,101855.93
2019-02-27T11:07:16.823Z,101852.94
2019-02-27T11:09:48.845Z,101849.20
2019-02-27T11:12:21.224Z,101843.45
2019-02-27T11:14:52.531Z,101838.40
2019-02-27T11:17:24.384Z,101830.88
2019-02-27T11:19:55.673Z,101823.00
2019-02-27T11:22:31.642Z,101817.86
2019-02-27T11:25:01.348Z,101820.74
2019-02-27T11:27:33.002Z,101820.56
2019-02-27T11:30:04.725Z,101803.39
2019-02-27T11:32:37.489Z,101805.16
2019-02-27T11:35:08.901Z,101799.06
2019-02-27T11:37:41.230Z,101792.41
2019-02-27T11:40:18.875Z,101785.25
2019-02-27T11:42:50.126Z,101782.25
2019-02-27T11:45:24.721Z,101777.93
2019-02-27T11:47:54.987Z,101767.77
2019-02-27T11:50:26.330Z,101761.89
2019-02-27T11:53:01.768Z,101755.38
2019-02-27T11:55:31.030Z,101756.78
2019-02-27T11:58:05.381Z,101753.16
2019-02-27T12:00:35.291Z,101753.48
2019-02-27T12:03:08.613Z,101752.47
2019-02-27T12:05:40.240Z,101748.24
2019-02-27T12:08:12.514Z,101747.92
2019-02-27T12:10:44.200Z,101737.80
2019-02-27T12:13:15.496Z,101737.12
2019-02-27T12:15:47.232Z,101728.40
2019-02-27T12:18:18.540Z,101738.20
2019-02-27T12:20:53.251Z,101733.52
2019-02-27T12:23:23.839Z,101721.87
2019-02-27T12:25:55.517Z,101706.46
2019-02-27T12:28:26.826Z,101701.55
2019-02-27T12:30:58.860Z,101700.83
2019-02-27T12:33:30.592Z,101700.45
2019-02-27T12:36:01.950Z,101691.17
2019-02-27T12:38:33.760Z,101685.78
2019-02-27T12:41:05.079Z,101682.47
2019-02-27T12:43:36.364Z,101678.99
2019-02-27T12:46:09.673Z,101666.13
2019-02-27T12:48:41.141Z,101658.57
2019-02-27T12:51:12.778Z,101650.03
2019-02-27T12:53:44.685Z,101655.47
2019-02-27T12:56:15.982Z,101655.31
2019-02-27T12:58:47.910Z,101647.69
2019-02-27T13:01:19.918Z,101645.92
2019-02-27T13:03:51.503Z,101647.23
2019-02-27T13:06:22.818Z,101637.58
2019-02-27T13:08:55.841Z,101628.96
2019-02-27T13:11:27.327Z,101617.34
2019-02-27T13:13:59.708Z,101622.84
2019-02-27T13:16:32.048Z,101624.56
2019-02-27T13:19:06.284Z,101612.34
2019-02-27T13:21:36.709Z,101606.36
2019-02-27T13:24:08.569Z,101616.45
2019-02-27T13:26:40.612Z,101609.52
2019-02-27T13:29:11.926Z,101608.67
2019-02-27T13:31:43.332Z,101598.64
2019-02-27T13:34:14.654Z,101601.81
2019-02-27T13:36:46.486Z,101593.20
2019-02-27T13:39:18.134Z,101594.16
2019-02-27T13:41:50.691Z,101588.25
2019-02-27T13:44:22.427Z,101584.91
2019-02-27T13:46:57.617Z,101583.59
2019-02-27T13:49:29.251Z,101573.04
2019-02-27T13:52:01.292Z,101575.83
2019-02-27T13:54:37.957Z,101571.63
2019-02-27T13:57:06.234Z,101571.39
2019-02-27T13:59:37.453Z,101558.91
2019-02-27T14:02:11.352Z,101557.61
2019-02-27T14:04:42.286Z,101547.00
2019-02-27T14:07:13.571Z,101541.22
2019-02-27T14:09:44.994Z,101538.52
2019-02-27T14:12:16.581Z,101529.60
2019-02-27T14:14:50.166Z,101532.46
2019-02-27T14:17:21.559Z,101525.26
2019-02-27T14:19:55.272Z,101519.68
2019-02-27T14:22:25.922Z,101519.68
2019-02-27T14:24:58.378Z,101511.14
2019-02-27T14:27:29.652Z,101510.01
2019-02-27T14:30:03.299Z,101501.17
2019-02-27T14:32:34.284Z,101500.33
2019-02-27T14:35:05.892Z,101493.70
2019-02-27T14:37:37.253Z,101491.56
2019-02-27T14:40:12.078Z,101490.81
2019-02-27T14:42:43.428Z,101483.20
2019-02-27T14:45:17.602Z,101477.21
2019-02-27T14:47:49.017Z,101473.87
2019-02-27T14:50:21.813Z,101475.89
2019-02-27T14:52:53.108Z,101474.29
2019-02-27T14:55:24.578Z,101466.25
2019-02-27T14:57:55.960Z,101452.52
2019-02-27T15:00:30.008Z,101452.79
2019-02-27T15:03:01.479Z,101443.79
2019-02-27T15:05:33.517Z,101439.72
2019-02-27T15:08:05.079Z,101425.94
2019-02-27T15:10:40.068Z,101427.11
2019-02-27T15:13:09.862Z,101421.30
2019-02-27T15:15:43.737Z,101422.17
2019-02-27T15:18:14.177Z,101421.47
2019-02-27T15:20:45.793Z,101417.70
2019-02-27T15:23:17.108Z,101408.49
2019-02-27T15:25:48.812Z,101406.89
2019-02-27T15:28:20.103Z,101404.19
2019-02-27T15:30:51.379Z,101395.09
2019-02-27T15:33:23.176Z,101403.77
2019-02-27T15:35:55.650Z,101393.69
2019-02-27T15:38:27.863Z,101394.75
2019-02-27T15:41:02.403Z,101387.00
2019-02-27T15:43:32.420Z,101383.66
2019-02-27T15:46:04.008Z,101375.38
2019-02-27T15:48:38.176Z,101369.30
2019-02-27T15:51:10.273Z,101367.84
2019-02-27T15:53:41.573Z,101362.07
2019-02-27T15:56:13.141Z,101353.98
2019-02-27T15:58:44.426Z,101344.88
2019-02-27T16:01:15.752Z,101341.00
2019-02-27T16:03:47.983Z,101330.55
2019-02-27T16:06:19.268Z,101330.55
2019-02-27T16:08:51.177Z,101339.95
2019-02-27T16:11:22.567Z,101334.63
2019-02-27T16:13:54.703Z,101325.47
2019-02-27T16:16:26.707Z,101328.34
2019-02-27T16:26:02.005Z,101321.81
2019-02-27T16:28:33.262Z,101312.39
2019-02-27T16:31:06.183Z,101309.02
2019-02-27T16:33:38.470Z,101302.44
2019-02-27T16:36:09.809Z,101304.72
2019-02-27T16:38:41.355Z,101308.02
2019-02-27T16:41:12.812Z,101297.72
2019-02-27T16:43:47.700Z,101302.14
2019-02-27T16:46:17.138Z,101303.03
2019-02-27T16:48:48.486Z,101298.34
2019-02-27T16:51:20.300Z,101292.18
2019-02-27T16:53:52.557Z,101286.80
2019-02-27T16:56:24.472Z,101286.49
2019-02-27T16:58:56.172Z,101281.72
2019-02-27T17:01:29.506Z,101283.67
2019-02-27T17:04:01.469Z,101277.95
2019-02-27T17:06:33.143Z,101279.36
2019-02-27T17:09:09.637Z,101275.58
2019-02-27T17:11:39.188Z,101272.14
2019-02-27T17:14:10.774Z,101271.13
2019-02-27T17:16:44.879Z,101264.25
2019-02-27T17:19:15.891Z,101262.56
2019-02-27T17:21:47.464Z,101258.83
2019-02-27T17:24:21.894Z,101260.64
2019-02-27T17:26:53.125Z,101248.95
2019-02-27T17:29:26.383Z,101243.41
2019-02-27T17:31:57.977Z,101248.69
2019-02-27T17:34:29.764Z,101241.38
2019-02-27T17:37:03.631Z,101243.53
2019-02-27T17:39:34.637Z,101239.34
2019-02-27T17:42:05.985Z,101240.52
2019-02-27T17:44:37.751Z,101232.39
2019-02-27T17:47:09.757Z,101229.98
2019-02-27T17:49:41.079Z,101226.09
2019-02-27T17:52:14.817Z,101219.64
2019-02-27T17:54:45.934Z,101215.99
2019-02-27T17:57:17.217Z,101210.09
2019-02-27T17:59:48.992Z,101199.81
2019-02-27T18:02:20.290Z,101199.81
2019-02-27T18:04:53.777Z,101192.47
2019-02-27T18:07:32.023Z,101189.48
2019-02-27T18:09:58.463Z,101181.60
2019-02-27T18:12:31.153Z,101180.22
2019-02-27T18:15:02.457Z,101175.44
2019-02-27T18:17:34.957Z,101176.75
2019-02-27T18:20:07.826Z,101170.29
2019-02-27T18:22:39.113Z,101168.17
2019-02-27T18:25:11.026Z,101159.42
2019-02-27T18:27:42.519Z,101150.70
2019-02-27T18:30:15.488Z,101145.05
2019-02-27T18:32:48.397Z,101148.08
2019-02-27T18:35:19.786Z,101140.20
2019-02-27T18:37:54.374Z,101138.48
2019-02-27T18:40:24.379Z,101135.08
2019-02-27T18:42:56.705Z,101133.87
2019-02-27T18:45:28.167Z,101133.80
2019-02-27T18:48:00.085Z,101126.84
2019-02-27T18:50:31.436Z,101124.21
2019-02-27T18:53:03.373Z,101119.84
2019-02-27T18:55:34.684Z,101110.84
2019-02-27T18:58:06.526Z,101112.97
2019-02-27T19:00:37.880Z,101113.03
2019-02-27T19:03:09.437Z,101111.28
2019-02-27T19:05:42.037Z,101099.50
2019-02-27T19:08:13.703Z,101095.56
2019-02-27T19:10:45.605Z,101094.26
2019-02-27T19:13:17.224Z,101086.78
2019-02-27T19:15:48.512Z,101082.92
2019-02-27T19:18:20.152Z,101083.85
2019-02-27T19:20:51.518Z,101079.22
2019-02-27T19:23:25.679Z,101071.03
2019-02-27T19:25:57.017Z,101066.22
2019-02-27T19:28:28.438Z,101063.28
2019-02-27T19:31:01.051Z,101058.59
2019-02-27T19:33:35.869Z,101053.86
2019-02-27T19:36:05.594Z,101052.16
2019-02-27T19:38:37.529Z,101050.39
2019-02-27T19:41:08.974Z,101037.77
2019-02-27T19:43:40.570Z,101045.19
2019-02-27T19:46:11.829Z,101038.19
2019-02-27T19:48:43.657Z,101034.25
2019-02-27T19:51:17.078Z,101029.40
2019-02-27T19:53:48.310Z,101019.81
2019-02-27T19:56:19.971Z,101019.41
2019-02-27T19:58:52.210Z,101022.00
2019-02-27T20:01:24.079Z,101025.52
2019-02-27T20:03:55.442Z,101016.00
2019-02-27T20:06:27.968Z,101012.09
2019-02-27T20:08:59.966Z,101003.36
2019-02-27T20:11:31.237Z,101001.69
2019-02-27T20:14:03.577Z,101000.42
2019-02-27T20:16:35.711Z,100997.39
2019-02-27T20:19:07.023Z,100997.82
2019-02-27T20:21:38.405Z,100983.38
2019-02-27T20:24:14.498Z,100978.17
2019-02-27T20:26:44.728Z,100989.09
2019-02-27T20:29:16.549Z,100975.94
2019-02-27T20:31:47.931Z,100970.72
2019-02-27T20:34:19.553Z,100968.52
2019-02-27T20:36:51.079Z,100961.09
2019-02-27T20:39:24.429Z,100954.59
2019-02-27T20:41:56.181Z,100956.77
2019-02-27T20:44:27.958Z,100944.91
2019-02-27T20:46:59.275Z,100940.58
2019-02-27T20:49:30.834Z,100932.82
2019-02-27T20:52:02.193Z,100926.80
2019-02-27T20:54:34.065Z,100918.87
2019-02-27T20:57:08.194Z,100912.28
2019-02-27T20:59:39.142Z,100917.97
2019-02-27T21:02:10.468Z,100919.31
2019-02-27T21:04:41.812Z,100918.09
2019-02-27T21:07:21.894Z,100912.78
2019-02-27T21:09:46.513Z,100906.66
2019-02-27T21:12:17.821Z,100909.28
2019-02-27T21:14:49.166Z,100906.22
2019-02-27T21:17:21.801Z,100903.22
2019-02-27T21:19:53.935Z,100895.80
2019-02-27T21:22:27.795Z,100897.15
2019-02-27T21:24:59.339Z,100894.13
2019-02-27T21:27:33.101Z,100887.61
2019-02-27T21:30:03.948Z,100873.75
2019-02-27T21:32:36.129Z,100873.75
2019-02-27T21:35:08.636Z,100872.39
2019-02-27T21:37:44.628Z,100862.37
2019-02-27T21:40:14.816Z,100863.70
2019-02-27T21:42:46.225Z,100847.63
2019-02-27T21:45:18.523Z,100854.56
2019-02-27T21:47:51.709Z,100855.06
2019-02-27T21:50:23.064Z,100841.14
2019-02-27T21:52:55.765Z,100847.68
2019-02-27T21:55:27.479Z,100843.78
2019-02-27T21:57:59.567Z,100848.59
2019-02-27T22:00:31.848Z,100849.38
2019-02-27T22:03:06.570Z,100841.13
2019-02-27T22:05:42.989Z,100841.60
2019-02-27T22:08:14.659Z,100841.28
2019-02-27T22:10:45.983Z,100844.38
2019-02-27T22:13:28.602Z,100846.16
2019-02-27T22:15:50.272Z,100840.97
2019-02-27T22:18:21.864Z,100838.39
2019-02-27T22:20:53.844Z,100835.37
2019-02-27T22:23:25.823Z,100838.41
2019-02-27T22:25:57.509Z,100830.58
2019-02-27T22:28:29.565Z,100833.63
2019-02-27T22:31:06.748Z,100828.42
2019-02-27T22:33:37.701Z,100820.64
2019-02-27T22:36:12.679Z,100821.45
2019-02-27T22:38:43.460Z,100816.69
2019-02-27T22:41:15.710Z,100814.96
2019-02-27T22:43:47.043Z,100809.76
2019-02-27T22:46:18.411Z,100811.50
2019-02-27T22:48:52.857Z,100806.34
2019-02-27T22:51:24.176Z,100804.58
2019-02-27T22:53:55.802Z,100800.67
2019-02-27T22:56:27.189Z,100790.22
2019-02-27T22:58:59.392Z,100799.84
2019-02-27T23:01:51.265Z,100786.81
2019-02-27T23:04:22.885Z,100792.02
2019-02-27T23:06:54.471Z,100779.86
2019-02-27T23:09:26.486Z,100770.71
2019-02-27T23:11:57.790Z,100773.76
2019-02-27T23:14:29.382Z,100756.38
2019-02-27T23:17:01.335Z,100758.51
2019-02-27T23:19:32.901Z,100753.75
2019-02-27T23:22:04.625Z,100754.59
2019-02-27T23:24:36.586Z,100739.38
2019-02-27T23:27:08.496Z,100756.34
2019-02-27T23:29:40.646Z,100751.98
2019-02-27T23:32:12.137Z,100750.27
2019-02-27T23:34:44.584Z,100741.55
2019-02-27T23:37:16.862Z,100745.03
2019-02-27T23:39:48.533Z,100744.14
2019-02-27T23:42:20.162Z,100743.31
2019-02-27T23:44:51.786Z,100750.30
2019-02-27T23:47:23.421Z,100745.06
2019-02-27T23:49:54.749Z,100740.70
2019-02-27T23:52:27.019Z,100738.10
2019-02-27T23:54:58.975Z,100734.61
2019-02-27T23:57:30.646Z,100723.31
